Time;durP1;ratioP1;P1;durP2;ratioP2;P2;SDS_P1;SDS_P2;PMS_P1;PMS_P2;Temp;Humidity;BMP_temperature;BMP_pressure;BME280_temperature;BME280_humidity;BME280_pressure;Samples;Min_cycle;Max_cycle;Signal;HPM_P1;HPM_P2
2022/01/22 00:00:04;;;;;;;;;;;;;;;26.66;24.05;98279.91;172152;28;1164;-47
2022/01/22 00:00:10;;;;;;;;;;;;;;;26.67;24.01;98286.91;173131;28;806;-48
2022/01/22 00:00:20;;;;;;;;;;;;;;;26.68;24.05;98282.44;172404;28;990;-47
2022/01/22 00:00:25;;;;;;;;;;;;;;;26.68;24.07;98279.81;172531;28;1047;-48
2022/01/22 00:00:30;;;;;;;;;;;;;;;26.67;24.09;98280.75;172427;28;995;-48
2022/01/22 00:00:35;;;;;;;;;;;;;;;26.67;23.87;98284.25;171113;28;834;-47
2022/01/22 00:00:41;;;;;;;;;;;;;;;26.69;23.84;98284.13;171207;28;1082;-47
2022/01/22 00:00:46;;;;;;;;;;;;;;;26.70;23.71;98285.81;171140;28;881;-46
2022/01/22 00:00:51;;;;;;;;;;;;;;;26.66;23.76;98279.06;171088;28;1111;-48
2022/01/22 00:00:56;;;;;;;;;;;;;;;26.65;23.70;98275.59;171099;28;1012;-46
2022/01/22 00:01:02;;;;;;;;;;;;;;;26.67;24.00;98278.97;170872;28;1193;-48
2022/01/22 00:01:07;;;;;;;;;;;;;;;26.67;23.95;98280.75;170536;29;1032;-47
2022/01/22 00:01:12;;;;;;;;;;;;;;;26.68;23.98;98274.50;170820;28;802;-48
2022/01/22 00:01:18;;;;;;;;;;;;;;;26.67;24.04;98278.97;170863;28;996;-47
2022/01/22 00:01:23;;;;;;;;;;;;;;;26.63;23.74;98281.94;171258;28;802;-47
2022/01/22 00:01:28;;;;;;;;;;;;;;;26.65;24.03;98283.53;171208;28;1189;-47
2022/01/22 00:01:33;;;;;;;;;;;;;;;26.66;23.98;98282.56;171090;28;953;-47
2022/01/22 00:01:39;;;;;;;;;;;;;;;26.66;24.01;98277.28;170708;28;4401;-47
2022/01/22 00:01:45;;;;;;;;;;;;;;;26.66;23.85;98281.72;171277;28;810;-47
2022/01/22 00:01:51;;;;;;;;;;;;;;;26.67;24.03;98275.47;171051;28;1103;-47
2022/01/22 00:01:56;;;;;;;;;;;;;;;26.67;23.76;98280.75;171136;28;948;-48
2022/01/22 00:02:02;;;;;;;;;;;;;;;26.67;23.82;98278.97;170903;28;1178;-47
2022/01/22 00:02:08;;;;;;;;;;;;;;;26.65;24.11;98274.75;171153;28;799;-47
2022/01/22 00:02:13;;;;;;;;;;;;;;;26.65;23.84;98275.59;170638;28;1046;-48
2022/01/22 00:02:18;;;;;;;;;;;;;;;26.67;23.86;98280.75;171127;28;901;-48
2022/01/22 00:02:23;;;;;;;;;;;;;;;26.66;23.97;98276.44;171550;28;849;-47
2022/01/22 00:02:29;;;;;;;;;;;;;;;26.65;24.05;98274.75;171710;28;1154;-48
2022/01/22 00:02:34;;;;;;;;;;;;;;;26.66;24.08;98273.78;172810;28;890;-47
2022/01/22 00:02:39;;;;;;;;;;;;;;;26.65;24.09;98275.59;173290;28;1177;-47
2022/01/22 00:02:45;;;;;;;;;;;;;;;26.66;24.09;98276.44;173181;28;877;-47
2022/01/22 00:02:50;;;;;;;;;;;;;;;26.67;24.17;98278.13;173085;28;1113;-47
2022/01/22 00:02:55;;;;;;;;;;;;;;;26.65;23.97;98272.94;172699;28;865;-48
2022/01/22 00:03:01;;;;;;;;;;;;;;;26.64;23.86;98273.91;172424;28;1209;-47
2022/01/22 00:03:06;;;;;;;;;;;;;;;26.63;23.73;98277.50;173105;28;841;-47
2022/01/22 00:03:12;;;;;;;;;;;;;;;26.66;24.08;98276.44;173089;28;1532;-47
2022/01/22 00:03:17;;;;;;;;;;;;;;;26.67;24.00;98272.81;172360;28;904;-47
2022/01/22 00:03:22;;;;;;;;;;;;;;;26.67;23.71;98272.81;171796;28;1066;-48
2022/01/22 00:03:27;;;;;;;;;;;;;;;26.67;23.73;98273.66;171563;28;1293;-47
2022/01/22 00:03:33;;;;;;;;;;;;;;;26.65;23.95;98275.59;171452;28;877;-46
2022/01/22 00:03:38;;;;;;;;;;;;;;;26.64;24.04;98279.19;172068;28;1031;-46
2022/01/22 00:03:43;;;;;;;;;;;;;;;26.65;23.80;98270.28;172244;28;960;-47
2022/01/22 00:03:48;;;;;;;;;;;;;;;26.65;23.99;98272.09;171820;28;1102;-47
2022/01/22 00:03:54;;;;;;;;;;;;;;;26.66;23.96;98274.63;172571;28;794;-47
2022/01/22 00:03:59;;;;;;;;;;;;;;;26.66;24.04;98276.44;172411;28;794;-47
2022/01/22 00:04:04;;;;;;;;;;;;;;;26.66;23.69;98276.44;171512;28;1252;-48
2022/01/22 00:04:09;;;;;;;;;;;;;;;26.66;24.02;98279.06;171875;28;996;-47
2022/01/22 00:04:14;;;;;;;;;;;;;;;26.67;23.76;98283.41;171838;28;1197;-48
2022/01/22 00:04:20;;;;;;;;;;;;;;;26.67;23.84;98283.41;171027;28;814;-49
2022/01/22 00:04:25;;;;;;;;;;;;;;;26.67;24.08;98280.75;171498;28;960;-47
2022/01/22 00:04:30;;;;;;;;;;;;;;;26.66;23.75;98276.44;173024;28;918;-47
2022/01/22 00:04:35;;;;;;;;;;;;;;;26.65;24.03;98274.75;172330;28;1312;-47
2022/01/22 00:04:41;;;;;;;;;;;;;;;26.66;23.77;98274.63;173329;28;809;-47
2022/01/22 00:04:46;;;;;;;;;;;;;;;26.67;23.96;98276.31;173130;28;893;-47
2022/01/22 00:04:51;;;;;;;;;;;;;;;26.67;23.79;98271.03;171077;28;944;-48
2022/01/22 00:04:56;;;;;;;;;;;;;;;26.66;23.75;98277.28;171187;28;802;-47
2022/01/22 00:05:02;;;;;;;;;;;;;;;26.67;23.77;98275.47;171504;28;1086;-47
2022/01/22 00:05:08;;;;;;;;;;;;;;;26.68;23.89;98278.00;171101;28;774;-48
2022/01/22 00:05:13;;;;;;;;;;;;;;;26.65;24.06;98269.44;172773;28;1204;-47
2022/01/22 00:05:19;;;;;;;;;;;;;;;26.66;23.90;98277.28;173203;28;920;-47
2022/01/22 00:05:24;;;;;;;;;;;;;;;26.68;23.66;98275.34;172178;28;999;-47
2022/01/22 00:05:29;;;;;;;;;;;;;;;26.67;23.98;98276.31;172595;28;816;-49
2022/01/22 00:05:34;;;;;;;;;;;;;;;26.67;23.80;98278.13;172352;28;1102;-47
2022/01/22 00:05:40;;;;;;;;;;;;;;;26.67;23.69;98275.47;172115;28;4180;-48
2022/01/22 00:05:45;;;;;;;;;;;;;;;26.67;24.05;98276.31;172563;28;1145;-48
2022/01/22 00:05:50;;;;;;;;;;;;;;;26.66;23.78;98277.28;172420;28;818;-47
2022/01/22 00:05:55;;;;;;;;;;;;;;;26.67;24.00;98280.75;172459;28;874;-48
2022/01/22 00:06:01;;;;;;;;;;;;;;;26.67;23.96;98270.19;172083;28;1427;-47
2022/01/22 00:06:06;;;;;;;;;;;;;;;26.66;23.78;98268.50;171764;28;862;-47
2022/01/22 00:06:11;;;;;;;;;;;;;;;26.63;23.99;98274.88;171395;28;1095;-47
2022/01/22 00:06:16;;;;;;;;;;;;;;;26.65;23.83;98269.44;172453;28;878;-47
2022/01/22 00:06:21;;;;;;;;;;;;;;;26.66;23.78;98271.13;172261;28;846;-47
2022/01/22 00:06:27;;;;;;;;;;;;;;;26.67;23.98;98268.38;172510;28;857;-47
2022/01/22 00:06:32;;;;;;;;;;;;;;;26.65;23.57;98269.44;171743;28;774;-47
2022/01/22 00:06:37;;;;;;;;;;;;;;;26.68;24.04;98272.72;170538;29;897;-48
2022/01/22 00:06:42;;;;;;;;;;;;;;;26.68;24.00;98274.50;170612;29;853;-47
2022/01/22 00:06:49;;;;;;;;;;;;;;;26.68;24.02;98274.50;171582;28;1226;-47
2022/01/22 00:06:55;;;;;;;;;;;;;;;26.67;23.70;98273.66;172566;28;841;-47
2022/01/22 00:07:02;;;;;;;;;;;;;;;26.67;23.75;98275.47;172026;28;895;-47
2022/01/22 00:07:09;;;;;;;;;;;;;;;26.69;23.97;98277.03;172602;28;858;-47
2022/01/22 00:07:14;;;;;;;;;;;;;;;26.68;23.96;98267.41;172299;28;830;-47
2022/01/22 00:07:19;;;;;;;;;;;;;;;26.68;23.72;98269.22;173116;28;975;-47
2022/01/22 00:07:25;;;;;;;;;;;;;;;26.68;24.03;98267.41;173252;28;961;-48
2022/01/22 00:07:30;;;;;;;;;;;;;;;26.69;24.05;98262.97;173174;28;853;-48
2022/01/22 00:07:35;;;;;;;;;;;;;;;26.65;24.05;98266.81;172481;28;1239;-47
2022/01/22 00:07:40;;;;;;;;;;;;;;;26.67;23.95;98267.53;172629;28;802;-47
2022/01/22 00:07:46;;;;;;;;;;;;;;;26.65;23.80;98267.66;172318;28;1189;-47
2022/01/22 00:07:51;;;;;;;;;;;;;;;26.64;24.00;98265.97;171790;28;825;-47
2022/01/22 00:07:56;;;;;;;;;;;;;;;26.64;23.86;98263.31;172015;28;1202;-47
2022/01/22 00:08:01;;;;;;;;;;;;;;;26.67;24.00;98273.66;172230;28;1144;-48
2022/01/22 00:08:07;;;;;;;;;;;;;;;26.69;23.75;98262.97;171632;28;1106;-47
2022/01/22 00:08:12;;;;;;;;;;;;;;;26.68;23.95;98269.22;171333;28;1012;-48
2022/01/22 00:08:17;;;;;;;;;;;;;;;26.68;23.72;98271.88;171763;28;983;-47
2022/01/22 00:08:23;;;;;;;;;;;;;;;26.68;23.91;98271.88;171878;28;1078;-47
2022/01/22 00:08:28;;;;;;;;;;;;;;;26.67;23.83;98273.66;171917;28;873;-47
2022/01/22 00:08:33;;;;;;;;;;;;;;;26.66;23.96;98265.84;171669;28;1219;-48
2022/01/22 00:08:38;;;;;;;;;;;;;;;26.62;23.81;98273.16;171801;28;818;-47
2022/01/22 00:08:43;;;;;;;;;;;;;;;26.61;23.97;98260.03;171837;28;964;-47
2022/01/22 00:08:49;;;;;;;;;;;;;;;26.64;24.21;98273.06;171112;28;922;-47
2022/01/22 00:08:54;;;;;;;;;;;;;;;26.63;24.10;98272.22;171209;28;1198;-47
2022/01/22 00:08:59;;;;;;;;;;;;;;;26.65;23.97;98267.66;171064;28;747;-48
2022/01/22 00:09:08;;;;;;;;;;;;;;;26.65;23.76;98269.44;171621;28;929;-47
2022/01/22 00:09:13;;;;;;;;;;;;;;;26.63;24.00;98266.91;172046;28;806;-47
2022/01/22 00:09:24;;;;;;;;;;;;;;;26.64;24.00;98267.75;172307;28;1035;-47
2022/01/22 00:09:36;;;;;;;;;;;;;;;26.67;24.02;98264.88;172453;28;1251;-47
2022/01/22 00:09:48;;;;;;;;;;;;;;;26.64;24.06;98268.59;172197;28;4391;-47
2022/01/22 00:09:59;;;;;;;;;;;;;;;26.59;23.85;98257.50;172626;28;1169;-48
2022/01/22 00:10:07;;;;;;;;;;;;;;;26.62;23.68;98262.59;172130;28;939;-47
2022/01/22 00:10:18;;;;;;;;;;;;;;;26.63;23.98;98266.09;173216;28;919;-47
2022/01/22 00:10:24;;;;;;;;;;;;;;;26.64;23.84;98267.75;172520;28;794;-47
2022/01/22 00:10:29;;;;;;;;;;;;;;;26.63;23.91;98263.44;172527;28;1173;-46
2022/01/22 00:10:35;;;;;;;;;;;;;;;26.60;23.78;98261.84;172483;28;798;-47
2022/01/22 00:10:42;;;;;;;;;;;;;;;26.60;23.71;98267.13;172532;28;1189;-47
2022/01/22 00:10:50;;;;;;;;;;;;;;;26.61;23.93;98266.16;173115;28;853;-47
2022/01/22 00:10:55;;;;;;;;;;;;;;;26.62;23.73;98265.25;173060;28;1164;-47
2022/01/22 00:11:02;;;;;;;;;;;;;;;26.61;24.09;98258.22;172956;28;994;-47
2022/01/22 00:11:07;;;;;;;;;;;;;;;26.62;24.06;98264.38;173123;28;861;-47
2022/01/22 00:11:13;;;;;;;;;;;;;;;26.64;24.02;98259.81;173180;28;850;-47
2022/01/22 00:11:18;;;;;;;;;;;;;;;26.65;23.75;98258.88;173090;28;1185;-49
2022/01/22 00:11:23;;;;;;;;;;;;;;;26.66;24.04;98260.56;173289;28;810;-46
2022/01/22 00:11:34;;;;;;;;;;;;;;;26.66;23.71;98257.91;173110;28;1125;-47
2022/01/22 00:11:50;;;;;;;;;;;;;;;26.63;23.82;98261.63;173297;28;1208;-47
2022/01/22 00:11:55;;;;;;;;;;;;;;;26.64;23.90;98263.31;173022;28;853;-49
2022/01/22 00:12:01;;;;;;;;;;;;;;;26.64;23.79;98265.97;172918;28;1143;-46
2022/01/22 00:12:07;;;;;;;;;;;;;;;26.65;23.71;98262.34;173130;28;1006;-48
2022/01/22 00:12:23;;;;;;;;;;;;;;;26.63;23.85;98269.56;173203;28;755;-47
2022/01/22 00:13:06;;;;;;;;;;;;;;;26.63;23.90;98261.63;173911;28;943;-47
2022/01/22 00:14:24;;;;;;;;;;;;;;;26.57;23.88;98251.47;172537;28;883;-47
2022/01/22 00:14:29;;;;;;;;;;;;;;;26.56;23.87;98257.72;172570;28;814;-47
2022/01/22 00:14:35;;;;;;;;;;;;;;;26.55;24.05;98253.41;172350;28;1352;-48
2022/01/22 00:14:40;;;;;;;;;;;;;;;26.54;24.15;98254.31;172600;28;831;-47
2022/01/22 00:14:45;;;;;;;;;;;;;;;26.53;23.88;98255.28;172527;28;802;-46
2022/01/22 00:14:50;;;;;;;;;;;;;;;26.51;24.25;98259.00;172428;28;1220;-47
2022/01/22 00:14:56;;;;;;;;;;;;;;;26.48;24.19;98260.09;172410;28;937;-46
2022/01/22 00:15:01;;;;;;;;;;;;;;;26.50;24.01;98259.97;172196;28;1188;-47
2022/01/22 00:15:07;;;;;;;;;;;;;;;26.52;24.18;98265.97;171786;28;878;-47
2022/01/22 00:15:13;;;;;;;;;;;;;;;26.52;23.95;98258.06;171688;28;955;-48
2022/01/22 00:15:19;;;;;;;;;;;;;;;26.52;24.15;98258.91;171836;28;822;-47
2022/01/22 00:15:24;;;;;;;;;;;;;;;26.52;24.02;98256.25;171774;28;1048;-47
2022/01/22 00:15:30;;;;;;;;;;;;;;;26.53;24.20;98252.66;172368;28;775;-47
2022/01/22 00:15:35;;;;;;;;;;;;;;;26.51;24.12;98253.72;171792;28;1114;-47
2022/01/22 00:15:42;;;;;;;;;;;;;;;26.52;24.21;98253.59;171889;28;830;-47
2022/01/22 00:15:48;;;;;;;;;;;;;;;26.48;23.96;98251.31;171728;28;1170;-47
2022/01/22 00:15:53;;;;;;;;;;;;;;;26.50;23.89;98244.09;171975;28;794;-47
2022/01/22 00:15:59;;;;;;;;;;;;;;;26.53;23.92;98254.44;171430;28;976;-48
2022/01/22 00:16:04;;;;;;;;;;;;;;;26.55;24.10;98249.91;171502;28;1145;-47
2022/01/22 00:16:09;;;;;;;;;;;;;;;26.56;24.20;98254.25;171888;28;1043;-47
2022/01/22 00:16:16;;;;;;;;;;;;;;;26.53;23.98;98257.09;171687;28;1965;-47
2022/01/22 00:16:21;;;;;;;;;;;;;;;26.54;23.94;98256.97;171942;28;1189;-48
2022/01/22 00:16:26;;;;;;;;;;;;;;;26.53;24.25;98259.72;171827;28;813;-47
2022/01/22 00:16:31;;;;;;;;;;;;;;;26.53;24.02;98257.94;171801;28;731;-47
2022/01/22 00:16:37;;;;;;;;;;;;;;;26.53;24.11;98249.16;171825;28;1224;-47
2022/01/22 00:16:42;;;;;;;;;;;;;;;26.55;24.06;98253.41;171893;28;881;-48
2022/01/22 00:16:47;;;;;;;;;;;;;;;26.54;24.12;98258.78;171641;28;1026;-48
2022/01/22 00:16:53;;;;;;;;;;;;;;;26.56;24.13;98256.88;171965;28;829;-46
2022/01/22 00:16:59;;;;;;;;;;;;;;;26.55;23.87;98261.34;171749;28;1154;-48
2022/01/22 00:17:04;;;;;;;;;;;;;;;26.56;24.14;98246.31;171784;28;853;-47
2022/01/22 00:17:10;;;;;;;;;;;;;;;26.56;24.11;98255.09;171819;28;1154;-47
2022/01/22 00:17:15;;;;;;;;;;;;;;;26.56;24.05;98254.25;171782;28;897;-47
2022/01/22 00:17:20;;;;;;;;;;;;;;;26.57;24.01;98262.06;173155;28;1136;-48
2022/01/22 00:17:25;;;;;;;;;;;;;;;26.58;24.19;98258.47;173263;28;960;-48
2022/01/22 00:17:30;;;;;;;;;;;;;;;26.60;24.05;98255.69;173099;28;941;-48
2022/01/22 00:17:36;;;;;;;;;;;;;;;26.59;24.10;98254.84;173095;28;1113;-47
2022/01/22 00:17:41;;;;;;;;;;;;;;;26.62;23.89;98259.94;172787;28;4189;-47
2022/01/22 00:17:47;;;;;;;;;;;;;;;26.63;24.03;98252.84;173001;28;1049;-47
2022/01/22 00:17:53;;;;;;;;;;;;;;;26.62;23.79;98253.78;171947;28;767;-47
2022/01/22 00:17:58;;;;;;;;;;;;;;;26.64;23.71;98246.59;171696;28;1224;-49
2022/01/22 00:18:03;;;;;;;;;;;;;;;26.63;23.72;98244.91;171545;28;1129;-47
2022/01/22 00:18:08;;;;;;;;;;;;;;;26.63;24.17;98253.69;171879;28;1213;-47
2022/01/22 00:18:14;;;;;;;;;;;;;;;26.65;23.60;98262.34;171783;28;818;-48
2022/01/22 00:18:19;;;;;;;;;;;;;;;26.66;23.91;98255.25;171701;28;1214;-48
2022/01/22 00:18:24;;;;;;;;;;;;;;;26.66;23.79;98249.97;171721;28;877;-47
2022/01/22 00:18:29;;;;;;;;;;;;;;;26.66;24.03;98244.69;171503;28;1591;-48
2022/01/22 00:18:35;;;;;;;;;;;;;;;26.65;24.04;98250.94;172151;28;995;-47
2022/01/22 00:18:40;;;;;;;;;;;;;;;26.65;23.93;98253.56;171932;28;791;-46
2022/01/22 00:18:45;;;;;;;;;;;;;;;26.65;23.98;98245.63;171754;28;1241;-47
2022/01/22 00:18:51;;;;;;;;;;;;;;;26.65;23.78;98253.56;171884;28;837;-47
2022/01/22 00:18:56;;;;;;;;;;;;;;;26.63;24.00;98253.69;171749;28;972;-48
2022/01/22 00:19:01;;;;;;;;;;;;;;;26.63;23.71;98250.22;171491;28;1184;-47
2022/01/22 00:19:09;;;;;;;;;;;;;;;26.63;23.80;98252.84;171777;28;1118;-47
2022/01/22 00:19:14;;;;;;;;;;;;;;;26.63;23.92;98248.41;171658;28;1086;-48
2022/01/22 00:19:19;;;;;;;;;;;;;;;26.63;23.66;98245.75;171348;28;1162;-47
2022/01/22 00:19:25;;;;;;;;;;;;;;;26.65;24.01;98248.28;171115;28;838;-46
2022/01/22 00:19:30;;;;;;;;;;;;;;;26.65;23.82;98245.63;171531;28;1023;-47
2022/01/22 00:19:35;;;;;;;;;;;;;;;26.64;23.89;98243.97;171864;28;795;-48
2022/01/22 00:19:40;;;;;;;;;;;;;;;26.63;23.85;98253.69;172561;28;892;-47
2022/01/22 00:19:46;;;;;;;;;;;;;;;26.62;23.78;98254.66;171833;28;849;-47
2022/01/22 00:19:51;;;;;;;;;;;;;;;26.63;23.95;98255.50;172650;28;783;-48
2022/01/22 00:19:56;;;;;;;;;;;;;;;26.64;23.70;98250.09;173464;28;1153;-47
2022/01/22 00:20:01;;;;;;;;;;;;;;;26.64;23.95;98249.25;173477;28;1088;-47
2022/01/22 00:20:07;;;;;;;;;;;;;;;26.63;23.97;98252.84;173794;28;1096;-46
2022/01/22 00:20:12;;;;;;;;;;;;;;;26.64;23.90;98252.75;173819;28;904;-47
2022/01/22 00:20:18;;;;;;;;;;;;;;;26.65;23.65;98240.34;173664;28;1159;-47
2022/01/22 00:20:24;;;;;;;;;;;;;;;26.64;23.65;98241.31;173888;28;864;-46
2022/01/22 00:20:29;;;;;;;;;;;;;;;26.62;24.04;98241.44;173515;28;1208;-47
2022/01/22 00:20:36;;;;;;;;;;;;;;;26.62;23.95;98246.72;173175;28;892;-47
2022/01/22 00:20:42;;;;;;;;;;;;;;;26.62;23.79;98253.78;173242;28;1208;-47
2022/01/22 00:20:47;;;;;;;;;;;;;;;26.60;24.10;98243.31;172391;28;952;-47
2022/01/22 00:20:52;;;;;;;;;;;;;;;26.59;24.07;98243.44;172207;28;1055;-46
2022/01/22 00:20:57;;;;;;;;;;;;;;;26.61;23.85;98252.09;172405;28;810;-48
2022/01/22 00:21:02;;;;;;;;;;;;;;;26.63;24.04;98252.84;172191;28;1109;-47
2022/01/22 00:21:08;;;;;;;;;;;;;;;26.62;24.08;98254.66;172548;28;1202;-47
2022/01/22 00:21:13;;;;;;;;;;;;;;;26.63;23.73;98247.56;172536;28;885;-47
2022/01/22 00:21:18;;;;;;;;;;;;;;;26.63;23.78;98239.63;172436;28;1154;-47
2022/01/22 00:21:23;;;;;;;;;;;;;;;26.61;23.75;98247.66;172920;28;971;-48
2022/01/22 00:21:28;;;;;;;;;;;;;;;26.64;23.98;98246.59;172806;28;1160;-46
2022/01/22 00:21:34;;;;;;;;;;;;;;;26.64;23.97;98244.78;172500;28;837;-47
2022/01/22 00:21:39;;;;;;;;;;;;;;;26.64;23.73;98251.91;172119;28;987;-48
2022/01/22 00:21:44;;;;;;;;;;;;;;;26.63;23.84;98243.13;171265;28;4196;-47
2022/01/22 00:21:50;;;;;;;;;;;;;;;26.64;23.77;98251.91;171877;28;889;-47
2022/01/22 00:21:55;;;;;;;;;;;;;;;26.64;24.02;98252.75;171924;28;799;-47
2022/01/22 00:22:01;;;;;;;;;;;;;;;26.64;23.93;98250.09;171501;28;1105;-46
2022/01/22 00:22:06;;;;;;;;;;;;;;;26.64;23.76;98241.31;171793;28;1110;-47
2022/01/22 00:22:11;;;;;;;;;;;;;;;26.64;23.80;98243.97;171908;28;885;-47
2022/01/22 00:22:16;;;;;;;;;;;;;;;26.66;23.69;98244.69;171667;28;1023;-48
2022/01/22 00:22:26;;;;;;;;;;;;;;;26.65;23.89;98243.84;171905;28;823;-47
2022/01/22 00:22:34;;;;;;;;;;;;;;;26.62;23.94;98248.50;172242;28;889;-47
2022/01/22 00:22:39;;;;;;;;;;;;;;;26.66;23.82;98244.69;172507;28;1054;-50
2022/01/22 00:22:44;;;;;;;;;;;;;;;26.63;24.04;98248.41;172615;28;881;-48
2022/01/22 00:22:50;;;;;;;;;;;;;;;26.63;23.85;98247.56;173166;28;1102;-47
2022/01/22 00:22:55;;;;;;;;;;;;;;;26.63;23.79;98255.50;172567;28;830;-46
2022/01/22 00:23:01;;;;;;;;;;;;;;;26.62;24.03;98246.72;172117;28;1109;-49
2022/01/22 00:23:06;;;;;;;;;;;;;;;26.63;23.96;98250.22;172547;28;925;-48
2022/01/22 00:23:11;;;;;;;;;;;;;;;26.64;23.98;98249.25;172502;28;926;-47
2022/01/22 00:23:19;;;;;;;;;;;;;;;26.63;23.82;98253.69;172286;28;1063;-48
2022/01/22 00:23:26;;;;;;;;;;;;;;;26.61;24.10;98252.94;172319;28;842;-46
2022/01/22 00:23:32;;;;;;;;;;;;;;;26.63;24.00;98247.56;171831;28;842;-49
2022/01/22 00:23:40;;;;;;;;;;;;;;;26.63;23.76;98256.34;172546;28;1173;-47
2022/01/22 00:23:54;;;;;;;;;;;;;;;26.62;23.96;98249.38;172476;28;925;-47
2022/01/22 00:24:02;;;;;;;;;;;;;;;26.56;24.06;98247.16;172204;28;1017;-47
2022/01/22 00:24:10;;;;;;;;;;;;;;;26.59;23.96;98256.66;172308;28;854;-47
2022/01/22 00:24:15;;;;;;;;;;;;;;;26.63;23.77;98255.50;172378;28;1026;-47
2022/01/22 00:24:21;;;;;;;;;;;;;;;26.62;23.83;98249.38;173178;28;743;-46
2022/01/22 00:24:26;;;;;;;;;;;;;;;26.60;23.70;98251.25;173193;28;1041;-47
2022/01/22 00:24:37;;;;;;;;;;;;;;;26.62;23.91;98253.78;173157;28;865;-47
2022/01/22 00:24:46;;;;;;;;;;;;;;;26.62;23.77;98249.38;173208;28;932;-48
2022/01/22 00:24:56;;;;;;;;;;;;;;;26.61;24.02;98246.81;173221;28;1224;-47
2022/01/22 00:25:02;;;;;;;;;;;;;;;26.54;24.13;98253.50;172915;28;841;-46
2022/01/22 00:25:08;;;;;;;;;;;;;;;26.57;23.88;98251.47;173184;28;810;-46
2022/01/22 00:25:14;;;;;;;;;;;;;;;26.58;24.01;98257.63;172822;28;1177;-47
2022/01/22 00:25:20;;;;;;;;;;;;;;;26.58;23.92;98250.53;173248;28;1008;-47
2022/01/22 00:25:25;;;;;;;;;;;;;;;26.59;23.90;98254.00;173112;28;1051;-46
2022/01/22 00:25:31;;;;;;;;;;;;;;;26.58;23.91;98252.31;173111;28;810;-47
2022/01/22 00:25:36;;;;;;;;;;;;;;;26.60;23.86;98253.06;172653;28;4296;-47
2022/01/22 00:25:42;;;;;;;;;;;;;;;26.61;23.83;98254.75;173346;28;809;-47
2022/01/22 00:25:47;;;;;;;;;;;;;;;26.61;23.84;98258.22;172237;28;1022;-47
2022/01/22 00:25:53;;;;;;;;;;;;;;;26.60;23.86;98253.06;171898;28;731;-47
2022/01/22 00:25:58;;;;;;;;;;;;;;;26.60;23.85;98253.06;171708;28;1182;-48
2022/01/22 00:26:03;;;;;;;;;;;;;;;26.60;24.06;98251.25;171594;28;1129;-47
2022/01/22 00:26:08;;;;;;;;;;;;;;;26.57;23.81;98255.94;171860;28;814;-47
2022/01/22 00:26:13;;;;;;;;;;;;;;;26.53;24.17;98243.88;171686;28;1178;-47
2022/01/22 00:26:19;;;;;;;;;;;;;;;26.55;24.05;98245.47;171588;28;870;-47
2022/01/22 00:26:24;;;;;;;;;;;;;;;26.57;23.91;98256.78;171113;28;1111;-46
2022/01/22 00:26:29;;;;;;;;;;;;;;;26.58;24.16;98250.53;171077;28;889;-47
2022/01/22 00:26:34;;;;;;;;;;;;;;;26.59;23.80;98252.22;171047;28;1075;-47
2022/01/22 00:26:40;;;;;;;;;;;;;;;26.61;23.81;98257.38;171276;28;818;-47
2022/01/22 00:26:45;;;;;;;;;;;;;;;26.59;23.75;98252.22;171136;28;1079;-46
2022/01/22 00:26:50;;;;;;;;;;;;;;;26.58;23.88;98253.16;171124;28;993;-47
2022/01/22 00:26:56;;;;;;;;;;;;;;;26.60;24.15;98247.75;171178;28;885;-46
2022/01/22 00:27:01;;;;;;;;;;;;;;;26.62;23.83;98251.13;170844;28;1280;-47
2022/01/22 00:27:06;;;;;;;;;;;;;;;26.61;23.88;98252.94;171152;28;1004;-47
2022/01/22 00:27:11;;;;;;;;;;;;;;;26.61;23.70;98249.44;171725;28;1189;-47
2022/01/22 00:27:16;;;;;;;;;;;;;;;26.60;23.75;98253.91;171722;28;750;-46
2022/01/22 00:27:22;;;;;;;;;;;;;;;26.61;23.81;98252.09;171817;28;1193;-48
2022/01/22 00:27:27;;;;;;;;;;;;;;;26.60;23.90;98253.06;171789;28;917;-47
2022/01/22 00:27:32;;;;;;;;;;;;;;;26.62;24.08;98253.78;171774;28;1111;-48
2022/01/22 00:27:38;;;;;;;;;;;;;;;26.63;24.17;98244.91;171990;28;861;-47
2022/01/22 00:27:44;;;;;;;;;;;;;;;26.63;23.77;98251.06;171778;28;802;-47
2022/01/22 00:27:49;;;;;;;;;;;;;;;26.62;24.02;98253.78;171867;28;901;-47
2022/01/22 00:27:54;;;;;;;;;;;;;;;26.61;23.77;98252.94;171955;28;913;-47
2022/01/22 00:28:01;;;;;;;;;;;;;;;26.61;23.96;98246.81;172069;28;1194;-46
2022/01/22 00:28:06;;;;;;;;;;;;;;;26.62;24.08;98253.78;172557;28;885;-47
2022/01/22 00:28:11;;;;;;;;;;;;;;;26.63;24.00;98248.41;172429;28;1248;-47
2022/01/22 00:28:16;;;;;;;;;;;;;;;26.62;23.86;98244.06;171395;28;1315;-47
2022/01/22 00:28:22;;;;;;;;;;;;;;;26.64;23.73;98247.44;171900;28;1130;-47
2022/01/22 00:28:27;;;;;;;;;;;;;;;26.65;24.09;98241.19;171885;28;810;-47
2022/01/22 00:28:32;;;;;;;;;;;;;;;26.64;23.82;98247.44;172396;28;1058;-47
2022/01/22 00:28:37;;;;;;;;;;;;;;;26.63;23.77;98243.13;172243;28;1540;-47
2022/01/22 00:28:42;;;;;;;;;;;;;;;26.65;23.70;98250.94;172359;28;936;-46
2022/01/22 00:28:48;;;;;;;;;;;;;;;26.65;23.85;98259.72;172508;28;813;-47
2022/01/22 00:28:53;;;;;;;;;;;;;;;26.64;23.76;98260.66;172653;28;929;-48
2022/01/22 00:28:58;;;;;;;;;;;;;;;26.62;23.98;98241.44;171610;28;1185;-48
2022/01/22 00:29:03;;;;;;;;;;;;;;;26.64;23.59;98241.31;171152;28;1188;-47
2022/01/22 00:29:10;;;;;;;;;;;;;;;26.64;23.93;98254.53;171543;28;1229;-47
2022/01/22 00:29:16;;;;;;;;;;;;;;;26.66;23.98;98240.22;171691;28;826;-48
2022/01/22 00:29:21;;;;;;;;;;;;;;;26.67;23.59;98246.38;171203;28;1134;-47
2022/01/22 00:29:27;;;;;;;;;;;;;;;26.65;23.76;98254.41;171232;28;917;-47
2022/01/22 00:29:32;;;;;;;;;;;;;;;26.66;23.65;98253.47;171050;28;1131;-47
2022/01/22 00:29:37;;;;;;;;;;;;;;;26.66;23.67;98244.69;171216;28;792;-47
2022/01/22 00:29:42;;;;;;;;;;;;;;;26.65;23.93;98237.72;170666;28;4217;-47
2022/01/22 00:29:48;;;;;;;;;;;;;;;26.64;23.97;98244.78;171130;28;795;-47
2022/01/22 00:29:53;;;;;;;;;;;;;;;26.65;23.97;98240.34;171845;28;1054;-47
2022/01/22 00:29:58;;;;;;;;;;;;;;;26.65;23.95;98243.84;171736;28;834;-47
2022/01/22 00:30:04;;;;;;;;;;;;;;;26.64;23.64;98239.50;172245;28;1140;-46
2022/01/22 00:30:10;;;;;;;;;;;;;;;26.65;23.96;98243.00;171878;28;1096;-48
2022/01/22 00:30:17;;;;;;;;;;;;;;;26.67;23.92;98246.38;171017;28;1034;-47
2022/01/22 00:30:23;;;;;;;;;;;;;;;26.64;23.64;98250.09;170676;28;684;-47
2022/01/22 00:30:28;;;;;;;;;;;;;;;26.66;23.71;98242.03;171226;28;913;-47
2022/01/22 00:30:34;;;;;;;;;;;;;;;26.65;23.73;98238.53;171083;28;858;-47
2022/01/22 00:30:40;;;;;;;;;;;;;;;26.67;24.00;98241.06;171145;28;886;-47
2022/01/22 00:30:45;;;;;;;;;;;;;;;26.66;23.96;98239.38;171059;28;905;-47
2022/01/22 00:30:50;;;;;;;;;;;;;;;26.65;23.73;98241.19;171199;28;989;-47
2022/01/22 00:30:55;;;;;;;;;;;;;;;26.66;23.88;98244.69;171326;28;1233;-48
2022/01/22 00:31:00;;;;;;;;;;;;;;;26.65;23.91;98245.63;171453;28;991;-46
2022/01/22 00:31:06;;;;;;;;;;;;;;;26.62;23.78;98240.56;171710;28;1233;-48
2022/01/22 00:31:11;;;;;;;;;;;;;;;26.64;23.73;98242.16;171800;28;1039;-47
2022/01/22 00:31:16;;;;;;;;;;;;;;;26.64;23.74;98249.25;171059;28;1197;-48
2022/01/22 00:31:21;;;;;;;;;;;;;;;26.61;23.62;98241.50;171213;28;822;-47
2022/01/22 00:31:26;;;;;;;;;;;;;;;26.62;23.75;98245.84;171143;28;795;-47
2022/01/22 00:31:34;;;;;;;;;;;;;;;26.62;24.03;98248.50;171661;28;1367;-47
2022/01/22 00:31:39;;;;;;;;;;;;;;;26.63;24.00;98245.75;171831;28;1103;-47
2022/01/22 00:31:45;;;;;;;;;;;;;;;26.64;23.63;98242.16;171144;28;802;-48
2022/01/22 00:31:50;;;;;;;;;;;;;;;26.64;24.03;98236.03;171230;28;882;-47
2022/01/22 00:31:55;;;;;;;;;;;;;;;26.63;23.77;98243.13;170943;28;1269;-47
2022/01/22 00:32:00;;;;;;;;;;;;;;;26.64;23.96;98236.84;170938;28;1098;-47
2022/01/22 00:32:06;;;;;;;;;;;;;;;26.64;23.73;98244.78;171128;28;1241;-47
2022/01/22 00:32:11;;;;;;;;;;;;;;;26.62;24.03;98233.50;171123;28;866;-47
2022/01/22 00:32:16;;;;;;;;;;;;;;;26.64;23.69;98238.66;171605;28;1259;-47
2022/01/22 00:32:21;;;;;;;;;;;;;;;26.64;23.70;98241.31;171767;28;893;-46
2022/01/22 00:32:26;;;;;;;;;;;;;;;26.65;23.67;98240.34;171791;28;1178;-48
2022/01/22 00:32:32;;;;;;;;;;;;;;;26.64;23.69;98242.16;171873;28;820;-48
2022/01/22 00:32:37;;;;;;;;;;;;;;;26.63;23.97;98235.19;171920;28;1040;-48
2022/01/22 00:32:42;;;;;;;;;;;;;;;26.62;23.81;98238.78;171795;28;1253;-48
2022/01/22 00:32:48;;;;;;;;;;;;;;;26.63;24.06;98244.91;171780;28;905;-47